Time;durP1;ratioP1;P1;durP2;ratioP2;P2;SDS_P1;SDS_P2;PMS_P1;PMS_P2;Temp;Humidity;BMP_temperature;BMP_pressure;BME280_temperature;BME280_humidity;BME280_pressure;Samples;Min_cycle;Max_cycle;Signal;HPM_P1;HPM_P2
2022/05/07 00:00:41;;;;;;;13.43;6.72;;;;;;;8.85;39.89;100939.88;5134184;27;20059;-78
2022/05/07 00:03:08;;;;;;;15.82;6.68;;;;;;;8.59;39.87;100899.22;5134234;27;20511;-79
2022/05/07 00:05:36;;;;;;;10.82;6.28;;;;;;;8.88;40.20;100956.44;5138355;27;20642;-79
2022/05/07 00:08:04;;;;;;;11.30;6.80;;;;;;;8.85;40.63;100958.09;5136703;27;20449;-79
2022/05/07 00:10:31;;;;;;;14.52;6.60;;;;;;;8.85;40.44;100966.81;5153832;27;20077;-80
2022/05/07 00:12:58;;;;;;;16.30;6.97;;;;;;;8.74;40.37;100932.63;5154690;27;20051;-79
2022/05/07 00:15:25;;;;;;;13.15;6.35;;;;;;;8.80;40.52;100956.25;5154888;27;20046;-79
2022/05/07 00:18:03;;;;;;;17.30;6.93;;;;;;;8.59;40.47;100911.38;5154540;27;20058;-79
2022/05/07 00:20:33;;;;;;;12.02;6.70;;;;;;;8.81;40.35;100960.59;5154636;27;20165;-79
2022/05/07 00:23:01;;;;;;;17.23;7.32;;;;;;;8.79;40.38;100964.91;5154412;27;20047;-80
2022/05/07 00:25:29;;;;;;;17.65;6.68;;;;;;;8.80;40.25;100963.19;5154500;27;20050;-80
2022/05/07 00:27:56;;;;;;;14.73;7.57;;;;;;;8.50;40.56;100900.72;5153098;27;20062;-79
2022/05/07 00:30:23;;;;;;;15.45;6.82;;;;;;;8.78;40.49;100957.94;5153245;27;20142;-80
2022/05/07 00:32:50;;;;;;;13.60;7.13;;;;;;;8.77;40.49;100956.16;5152953;27;20445;-80
2022/05/07 00:35:17;;;;;;;14.63;7.43;;;;;;;8.74;40.54;100947.38;5153409;27;20133;-78
2022/05/07 00:37:44;;;;;;;13.15;7.18;;;;;;;8.65;40.42;100953.22;5154303;27;20049;-82
2022/05/07 00:40:11;;;;;;;14.68;7.47;;;;;;;8.69;40.71;100959.38;5154407;27;20046;-80
2022/05/07 00:42:39;;;;;;;13.02;6.95;;;;;;;8.74;40.66;100960.41;5153997;27;20054;-80
2022/05/07 00:45:06;;;;;;;14.45;7.35;;;;;;;8.73;40.82;100950.81;5153166;27;20062;-79
2022/05/07 00:47:33;;;;;;;16.42;7.60;;;;;;;8.67;40.84;100956.75;5153063;27;20488;-79
2022/05/07 00:52:48;;;;;;;14.48;7.68;;;;;;;8.64;40.69;100955.78;5154340;27;20107;-79
2022/05/07 00:55:16;;;;;;;13.32;7.22;;;;;;;8.66;40.72;100960.19;5152659;27;20084;-80
2022/05/07 00:57:43;;;;;;;13.32;7.18;;;;;;;8.67;41.27;100966.25;5152707;27;20575;-79
2022/05/07 01:00:12;;;;;;;13.38;8.10;;;;;;;8.60;41.10;100944.38;5152774;27;20414;-80
2022/05/07 01:02:41;;;;;;;14.40;7.55;;;;;;;8.64;41.25;100967.06;5152898;27;20091;-80
2022/05/07 01:05:10;;;;;;;14.32;7.32;;;;;;;8.63;41.46;100960.09;5154065;27;20599;-79
2022/05/07 01:07:37;;;;;;;16.23;8.10;;;;;;;8.39;41.35;100924.66;5153767;27;20050;-79
2022/05/07 01:10:05;;;;;;;14.73;7.60;;;;;;;8.58;40.91;100944.34;5154626;27;20058;-79
2022/05/07 01:12:36;;;;;;;15.05;7.30;;;;;;;8.60;41.12;100960.91;5152956;27;20134;-80
2022/05/07 01:15:07;;;;;;;14.87;7.67;;;;;;;8.57;41.24;100949.50;5153248;27;20578;-81
2022/05/07 01:17:35;;;;;;;12.95;7.22;;;;;;;8.63;41.40;100959.22;5153101;27;20047;-81
2022/05/07 01:20:10;;;;;;;13.32;7.55;;;;;;;8.65;41.59;100966.25;5154229;27;20055;-81
2022/05/07 01:22:40;;;;;;;14.75;6.90;;;;;;;8.61;41.13;100956.56;5152555;27;20043;-80
2022/05/07 01:25:09;;;;;;;15.98;7.38;;;;;;;8.70;41.14;100969.84;5152958;27;20104;-80
2022/05/07 01:27:36;;;;;;;17.17;7.53;;;;;;;8.71;40.86;100942.97;5135709;27;20504;-81
2022/05/07 01:30:04;;;;;;;16.27;6.90;;;;;;;8.75;40.71;100959.56;5152542;27;20054;-81
2022/05/07 01:32:34;;;;;;;;;;;;;;;8.55;41.13;100966.81;5153303;27;20047;-80
2022/05/07 01:35:02;;;;;;;14.13;7.15;;;;;;;8.47;41.19;100934.44;5169977;27;19930;-81
2022/05/07 01:37:30;;;;;;;12.75;7.03;;;;;;;8.60;41.52;100950.50;5152765;27;20047;-81
2022/05/07 01:39:57;;;;;;;15.60;6.93;;;;;;;8.61;41.26;100960.06;5135080;27;20057;-79
2022/05/07 01:42:25;;;;;;;12.88;6.43;;;;;;;8.43;41.22;100928.25;5152059;27;20067;-80
2022/05/07 01:44:52;;;;;;;16.00;7.07;;;;;;;8.40;41.27;100910.84;5152098;27;20594;-80
2022/05/07 01:50:07;;;;;;;11.43;6.50;;;;;;;8.65;41.02;100958.44;5153898;27;20047;-82
2022/05/07 01:52:34;;;;;;;12.10;6.10;;;;;;;8.66;41.26;100975.81;5156711;27;20046;-80
2022/05/07 01:55:02;;;;;;;13.57;6.80;;;;;;;8.40;40.71;100917.75;5155820;27;20408;-81
2022/05/07 01:57:30;;;;;;;15.25;6.70;;;;;;;8.71;40.77;100970.72;5156203;27;20058;-81
2022/05/07 01:59:58;;;;;;;14.15;6.22;;;;;;;8.70;41.24;100953.34;5157560;27;20055;-80
2022/05/07 02:02:26;;;;;;;15.65;7.10;;;;;;;8.81;41.11;100962.34;5156544;27;20150;-78
2022/05/07 02:04:54;;;;;;;15.73;7.03;;;;;;;8.87;40.96;100954.69;5156179;27;20129;-80
2022/05/07 02:07:23;;;;;;;16.45;6.70;;;;;;;8.69;40.82;100904.69;5139219;27;20423;-81
2022/05/07 02:09:51;;;;;;;12.90;6.45;;;;;;;9.04;40.63;100957.78;5156119;27;20047;-79
2022/05/07 02:12:19;;;;;;;11.43;6.22;;;;;;;9.15;40.35;100969.38;5156178;27;20175;-80
2022/05/07 02:14:47;;;;;;;11.85;6.47;;;;;;;9.12;40.21;100942.31;5156312;27;20046;-81
2022/05/07 02:17:17;;;;;;;13.10;6.40;;;;;;;9.22;40.40;100970.41;5156284;27;20448;-80
2022/05/07 02:19:44;;;;;;;13.95;6.28;;;;;;;8.98;40.04;100901.13;5155982;27;20085;-81
2022/05/07 02:22:11;;;;;;;14.73;6.43;;;;;;;9.26;39.83;100946.19;5156000;27;20042;-82
2022/05/07 02:24:38;;;;;;;12.52;6.43;;;;;;;9.18;39.93;100922.53;5155796;27;20448;-82
2022/05/07 02:27:06;;;;;;;11.73;6.15;;;;;;;9.41;39.74;100936.13;5155880;27;20145;-80
2022/05/07 02:29:33;;;;;;;9.05;6.05;;;;;;;9.56;39.37;100961.72;5155930;27;20142;-81
2022/05/07 02:32:06;;;;;;;13.10;6.45;;;;;;;9.70;39.76;100971.63;5156861;27;20046;-82
2022/05/07 02:34:42;;;;;;;11.13;6.18;;;;;;;9.68;39.33;100958.56;5156818;27;20049;-81
2022/05/07 02:37:31;;;;;;;14.85;6.85;;;;;;;9.63;39.18;100914.06;5156614;27;20107;-81
2022/05/07 02:39:58;;;;;;;13.55;6.30;;;;;;;9.69;38.46;100910.72;5156687;27;20047;-82
2022/05/07 02:42:41;;;;;;;14.88;6.40;;;;;;;10.23;38.80;100992.88;5155576;27;20476;-81
2022/05/07 02:45:14;;;;;;;11.82;6.10;;;;;;;10.31;37.75;100939.13;5156042;27;20137;-81
2022/05/07 02:47:44;;;;;;;11.75;5.75;;;;;;;10.51;37.40;100904.72;5156070;27;20072;-82
2022/05/07 02:50:13;;;;;;;10.10;6.07;;;;;;;11.43;36.69;100966.56;5155736;27;20058;-80
2022/05/07 02:52:40;;;;;;;13.70;6.55;;;;;;;12.90;34.02;100984.44;5155453;27;20152;-80
2022/05/07 02:55:10;;;;;;;11.02;6.30;;;;;;;13.18;33.15;100976.03;5155618;27;20079;-80
2022/05/07 02:57:39;;;;;;;9.85;6.15;;;;;;;14.54;31.40;100977.09;5162651;27;20137;-79
2022/05/07 03:00:06;;;;;;;11.90;6.90;;;;;;;15.72;29.66;100973.94;5164051;27;20055;-80
2022/05/07 03:02:36;;;;;;;10.77;6.13;;;;;;;15.31;29.71;100955.44;5163002;27;20042;-80
2022/05/07 03:05:05;;;;;;;11.52;6.53;;;;;;;14.47;31.16;100980.56;5162382;27;20091;-80
2022/05/07 03:07:32;;;;;;;12.82;6.30;;;;;;;13.86;31.81;100980.19;5164513;27;20602;-79
2022/05/07 03:10:03;;;;;;;11.68;6.20;;;;;;;13.79;31.89;100978.34;5159682;27;20102;-80
2022/05/07 03:12:30;;;;;;;13.23;6.68;;;;;;;15.22;30.45;100943.13;5156392;27;20502;-79
2022/05/07 03:14:58;;;;;;;10.70;6.43;;;;;;;18.56;25.72;100952.91;5156380;27;20160;-80
2022/05/07 03:17:34;;;;;;;9.50;6.43;;;;;;;19.21;24.34;100904.38;5156119;27;20047;-80
2022/05/07 03:20:06;;;;;;;13.68;6.40;;;;;;;18.10;25.87;100971.03;5166738;27;20523;-80
2022/05/07 03:22:33;;;;;;;14.27;6.55;;;;;;;16.92;26.98;100928.78;5170451;27;20144;-80
2022/05/07 03:25:00;;;;;;;9.60;5.93;;;;;;;16.72;27.98;100962.28;5165528;27;20103;-79
2022/05/07 03:27:32;;;;;;;11.65;6.22;;;;;;;18.04;25.77;100942.88;5154658;27;20046;-80
2022/05/07 03:30:00;;;;;;;11.02;6.03;;;;;;;20.04;23.59;100942.75;5154574;27;20118;-80
2022/05/07 03:32:35;;;;;;;10.82;6.13;;;;;;;21.74;21.58;100924.00;5154510;27;20520;-80
2022/05/07 03:35:03;;;;;;;12.13;6.53;;;;;;;22.20;21.08;100960.88;5154470;27;20057;-80
2022/05/07 03:37:30;;;;;;;12.40;7.25;;;;;;;22.20;21.04;100960.88;5155670;27;20039;-80
2022/05/07 03:39:57;;;;;;;12.25;6.10;;;;;;;23.75;19.67;100955.31;5155327;27;20062;-80
2022/05/07 03:42:27;;;;;;;10.70;6.72;;;;;;;24.58;18.49;100943.53;5153729;27;20058;-79
2022/05/07 03:44:55;;;;;;;10.98;6.10;;;;;;;25.12;18.14;100931.63;5154179;27;20053;-80
2022/05/07 03:47:22;;;;;;;10.82;6.40;;;;;;;26.18;17.06;100953.09;5153955;27;20107;-79
2022/05/07 03:49:50;;;;;;;10.02;6.22;;;;;;;26.85;16.33;100950.03;5153952;27;20050;-80
2022/05/07 03:55:07;;;;;;;18.75;6.63;;;;;;;25.40;17.36;100942.09;5154153;27;20050;-79
2022/05/07 03:57:36;;;;;;;13.75;6.30;;;;;;;23.39;19.44;100942.28;5154009;27;20061;-80
2022/05/07 04:00:04;;;;;;;13.82;5.88;;;;;;;21.59;21.10;100933.22;5153790;27;20560;-80
2022/05/07 04:02:40;;;;;;;13.35;6.93;;;;;;;20.10;22.41;100913.44;5154593;27;20047;-80
2022/05/07 04:05:21;;;;;;;7.63;5.70;;;;;;;19.41;23.72;100943.78;5153785;27;20050;-80
2022/05/07 04:07:54;;;;;;;11.52;5.85;;;;;;;19.10;24.30;100943.38;5154173;27;20050;-80
2022/05/07 04:10:23;;;;;;;8.02;5.60;;;;;;;18.73;24.54;100949.16;5153713;27;20096;-81
2022/05/07 04:12:51;;;;;;;14.38;5.68;;;;;;;18.26;25.52;100962.03;5153494;27;20054;-81
2022/05/07 04:15:24;;;;;;;9.52;5.15;;;;;;;18.12;25.85;100956.03;5153025;27;20051;-78
2022/05/07 04:17:58;;;;;;;11.55;5.80;;;;;;;17.86;26.08;100958.94;5153462;27;20061;-81
2022/05/07 04:20:26;;;;;;;10.18;5.45;;;;;;;17.51;26.53;100908.13;5136014;27;20078;-79
2022/05/07 04:22:59;;;;;;;10.13;5.63;;;;;;;17.35;26.99;100967.22;5136383;27;20053;-81
2022/05/07 04:25:26;;;;;;;6.22;4.68;;;;;;;17.11;27.08;100937.47;5143632;27;20595;-79
2022/05/07 04:27:54;;;;;;;15.20;5.75;;;;;;;16.98;27.26;100952.50;5143865;27;20055;-81
2022/05/07 04:30:23;;;;;;;12.45;5.40;;;;;;;16.79;27.56;100911.22;5141704;27;20053;-82
2022/05/07 04:32:50;;;;;;;8.93;5.00;;;;;;;16.91;27.96;100968.41;5132981;27;20065;-80
2022/05/07 04:35:18;;;;;;;9.80;5.03;;;;;;;16.72;28.13;100928.88;5114289;27;20047;-81
2022/05/07 04:37:46;;;;;;;14.38;5.45;;;;;;;16.92;27.89;100967.50;5131272;27;20099;-81
2022/05/07 04:40:15;;;;;;;15.07;5.80;;;;;;;17.05;28.05;100968.31;5131905;27;20058;-79
2022/05/07 04:42:44;;;;;;;;;;;;;;;16.45;28.17;100955.34;5132301;27;20089;-78
2022/05/07 04:45:11;;;;;;;11.70;5.65;;;;;;;16.41;28.01;100954.47;5133782;27;19923;-80
2022/05/07 04:47:55;;;;;;;8.80;4.85;;;;;;;16.24;28.04;100946.63;5132436;27;20155;-82
2022/05/07 04:50:30;;;;;;;17.10;6.40;;;;;;;16.31;27.73;100926.41;5132622;27;20051;-81
2022/05/07 04:53:12;;;;;;;13.00;4.78;;;;;;;16.66;27.59;100941.22;5144892;27;20073;-81
2022/05/07 04:55:41;;;;;;;10.05;4.40;;;;;;;16.77;27.09;100948.16;5151583;27;20423;-80
2022/05/07 04:58:09;;;;;;;8.85;4.47;;;;;;;16.89;26.81;100949.06;5132358;27;20568;-80
2022/05/07 05:00:39;;;;;;;11.63;4.78;;;;;;;16.74;26.83;100920.94;5134081;27;20123;-83
2022/05/07 05:03:16;;;;;;;7.45;4.90;;;;;;;16.89;26.78;100947.28;5111333;27;20051;-81
2022/05/07 05:05:54;;;;;;;8.30;4.53;;;;;;;16.84;26.79;100941.13;5130410;27;20050;-80
2022/05/07 05:08:50;;;;;;;11.30;4.72;;;;;;;16.87;27.00;100935.84;5119877;27;20496;-80
2022/05/07 05:11:18;;;;;;;7.15;4.55;;;;;;;17.20;26.43;100931.25;5171180;27;20079;-80
2022/05/07 05:13:48;;;;;;;7.38;4.40;;;;;;;17.24;26.23;100940.91;5152951;27;20123;-80
2022/05/07 05:16:16;;;;;;;9.20;4.60;;;;;;;17.18;26.61;100940.94;5153118;27;20055;-82
2022/05/07 05:18:48;;;;;;;12.85;4.68;;;;;;;16.93;26.51;100905.94;5150527;27;20419;-80
2022/05/07 05:21:19;;;;;;;8.73;4.50;;;;;;;17.25;26.57;100945.31;5132785;28;20051;-80
2022/05/07 05:24:19;;;;;;;7.80;4.60;;;;;;;17.12;26.38;100944.50;5125133;27;20108;-81
2022/05/07 05:26:47;;;;;;;9.18;4.65;;;;;;;17.06;26.54;100898.81;5151974;27;20124;-80
2022/05/07 05:29:19;;;;;;;8.15;4.55;;;;;;;17.46;26.49;100948.66;5136785;27;20079;-79
2022/05/07 05:31:46;;;;;;;10.13;4.55;;;;;;;17.45;26.17;100933.72;5137464;27;20496;-80
2022/05/07 05:34:23;;;;;;;6.93;4.65;;;;;;;17.37;26.21;100939.91;5119272;27;20142;-79
2022/05/07 05:36:53;;;;;;;9.60;4.72;;;;;;;17.59;26.33;100924.81;5136268;27;20145;-80
2022/05/07 05:39:22;;;;;;;11.95;4.18;;;;;;;17.87;26.01;100931.63;5136153;27;20047;-84
2022/05/07 05:41:52;;;;;;;9.43;4.13;;;;;;;17.47;26.04;100908.19;5135823;27;20518;-78
2022/05/07 05:44:19;;;;;;;9.65;4.32;;;;;;;17.34;26.42;100891.56;5136087;27;20057;-79
2022/05/07 05:46:46;;;;;;;7.70;4.10;;;;;;;17.56;26.37;100942.44;5152815;27;20103;-78
2022/05/07 05:49:13;;;;;;;7.93;3.88;;;;;;;17.60;26.31;100939.75;5137694;27;20053;-76
2022/05/07 05:51:43;;;;;;;7.18;3.67;;;;;;;17.77;26.07;100938.72;5146857;27;20058;-80
2022/05/07 05:54:12;;;;;;;16.95;5.57;;;;;;;17.61;25.92;100880.72;5140357;27;20047;-79
2022/05/07 05:56:41;;;;;;;10.95;5.28;;;;;;;17.80;25.98;100884.06;5145495;27;20054;-82
2022/05/07 05:59:10;;;;;;;13.57;4.72;;;;;;;18.11;25.73;100939.31;5139156;27;20496;-81
2022/05/07 06:01:52;;;;;;;6.13;4.00;;;;;;;18.12;25.88;100937.53;5157769;27;20107;-83
2022/05/07 06:04:27;;;;;;;7.13;3.67;;;;;;;18.09;25.79;100898.78;5162519;27;20058;-81
2022/05/07 06:07:01;;;;;;;7.78;3.85;;;;;;;18.37;25.75;100948.72;5135717;27;20428;-81
2022/05/07 06:09:31;;;;;;;9.48;5.25;;;;;;;17.94;25.53;100898.94;5136289;27;20580;-81
2022/05/07 06:11:59;;;;;;;12.85;5.82;;;;;;;18.16;25.57;100929.56;5138092;27;20102;-82
2022/05/07 06:14:30;;;;;;;10.65;4.32;;;;;;;18.28;25.39;100914.44;5117824;28;20058;-81
2022/05/07 06:17:01;;;;;;;6.93;3.75;;;;;;;18.30;25.13;100942.59;5115263;28;20047;-85
2022/05/07 06:19:29;;;;;;;7.20;3.78;;;;;;;18.25;25.51;100931.22;5081725;28;20051;-82
2022/05/07 06:21:56;;;;;;;7.68;3.65;;;;;;;18.34;25.55;100944.31;5115339;28;20108;-85
2022/05/07 06:27:33;;;;;;;9.77;3.90;;;;;;;18.16;25.72;100934.84;5115453;28;20160;-85
2022/05/07 06:30:07;;;;;;;8.48;3.58;;;;;;;18.18;25.63;100903.97;5118674;27;20043;-82
2022/05/07 06:32:43;;;;;;;6.30;3.80;;;;;;;18.40;25.20;100914.28;5131938;27;20421;-82
2022/05/07 06:35:10;;;;;;;6.78;3.97;;;;;;;18.38;24.96;100926.66;5115535;28;20051;-82
2022/05/07 06:37:52;;;;;;;9.75;4.07;;;;;;;17.92;25.03;100858.47;5115277;28;20101;-83
2022/05/07 06:40:21;;;;;;;6.50;3.63;;;;;;;18.36;25.13;100942.53;5117991;28;20044;-80
2022/05/07 06:42:49;;;;;;;7.07;3.33;;;;;;;18.44;25.20;100936.31;5121557;28;20067;-81
2022/05/07 06:45:52;;;;;;;7.72;3.75;;;;;;;18.57;24.84;100937.91;5112885;28;20466;-82
2022/05/07 06:48:22;;;;;;;6.65;3.67;;;;;;;18.52;24.80;100914.16;5121938;28;20452;-82
2022/05/07 06:50:54;;;;;;;9.70;3.67;;;;;;;18.62;24.57;100913.09;5117659;28;20070;-82
2022/05/07 06:53:24;;;;;;;8.82;3.75;;;;;;;18.48;24.38;100906.28;5115228;28;20047;-83
2022/05/07 06:56:01;;;;;;;8.93;4.82;;;;;;;18.48;24.46;100925.66;5114627;28;20146;-83
2022/05/07 06:58:30;;;;;;;7.85;4.00;;;;;;;18.60;24.59;100920.19;5116507;28;20054;-82
2022/05/07 07:01:01;;;;;;;6.47;3.60;;;;;;;18.82;24.36;100931.44;5122120;28;20562;-84
2022/05/07 07:03:30;;;;;;;9.05;3.88;;;;;;;18.71;24.36;100901.53;5117318;28;20056;-85
2022/05/07 07:05:59;;;;;;;11.85;4.50;;;;;;;18.78;24.35;100931.50;5116498;28;20409;-85
2022/05/07 07:08:30;;;;;;;6.53;3.75;;;;;;;18.58;23.94;100916.72;5114862;28;20084;-83
2022/05/07 07:10:58;;;;;;;10.88;4.15;;;;;;;18.34;24.05;100901.13;5115416;28;20104;-84
2022/05/07 07:13:25;;;;;;;8.05;3.65;;;;;;;18.54;24.07;100922.94;5114086;28;20047;-83
2022/05/07 07:15:52;;;;;;;7.55;3.67;;;;;;;18.52;23.89;100918.53;5114935;27;20071;-82
2022/05/07 07:18:19;;;;;;;7.13;3.58;;;;;;;18.49;24.00;100929.19;5115434;28;20112;-84
2022/05/07 07:20:49;;;;;;;11.25;4.25;;;;;;;18.65;23.89;100937.78;5114826;28;20052;-82
2022/05/07 07:23:16;;;;;;;;;;;;;;;18.45;24.26;100895.72;5115242;28;20101;-86
2022/05/07 07:25:44;;;;;;;7.38;4.13;;;;;;;18.65;23.61;100921.91;5115581;28;20338;-83
2022/05/07 07:28:12;;;;;;;8.10;3.80;;;;;;;18.72;23.25;100905.94;5116476;28;20051;-82
2022/05/07 07:30:40;;;;;;;4.78;3.20;;;;;;;18.56;23.22;100883.22;5115637;28;20528;-81
2022/05/07 07:33:16;;;;;;;8.75;3.63;;;;;;;18.61;23.18;100892.84;5115196;28;20051;-88
2022/05/07 07:35:44;;;;;;;8.40;3.53;;;;;;;18.68;23.15;100847.78;5130582;27;20048;-80
2022/05/07 07:38:12;;;;;;;8.85;3.42;;;;;;;18.85;22.54;100860.81;5114775;28;20052;-81
2022/05/07 07:40:39;;;;;;;5.03;2.67;;;;;;;19.11;22.17;100897.47;5115137;27;20059;-81
2022/05/07 07:43:06;;;;;;;4.45;2.63;;;;;;;19.17;21.82;100882.38;5114120;28;20058;-80
2022/05/07 07:48:20;;;;;;;6.90;3.17;;;;;;;19.33;21.54;100863.56;5113672;28;20573;-82
2022/05/07 07:50:51;;;;;;;11.10;3.10;;;;;;;19.61;22.11;100891.31;5115059;28;20060;-83
2022/05/07 07:53:22;;;;;;;10.70;3.03;;;;;;;19.80;21.92;100897.22;5114480;28;20146;-82
2022/05/07 07:55:54;;;;;;;5.90;3.13;;;;;;;19.41;21.58;100851.06;5114467;27;20059;-82
2022/05/07 07:58:26;;;;;;;6.53;2.65;;;;;;;19.43;20.97;100859.88;5114794;28;20063;-87
2022/05/07 08:00:56;;;;;;;6.15;2.88;;;;;;;19.45;21.44;100889.88;5112727;28;20052;-82
2022/05/07 08:03:24;;;;;;;6.65;2.60;;;;;;;19.59;21.60;100881.66;5133478;27;20072;-83
2022/05/07 08:05:52;;;;;;;8.85;3.45;;;;;;;19.42;21.51;100893.44;5153460;27;20057;-83
2022/05/07 08:13:54;;;;;;;7.18;2.78;;;;;;;19.40;21.21;100871.41;5135048;27;20055;-83
2022/05/07 08:16:25;;;;;;;9.20;3.20;;;;;;;19.35;21.56;100852.03;5139267;27;20437;-82
2022/05/07 08:18:57;;;;;;;10.98;3.20;;;;;;;19.19;21.79;100817.00;5146921;27;20050;-84
2022/05/07 08:21:26;;;;;;;7.10;3.05;;;;;;;19.12;21.59;100817.13;5143626;27;20128;-83
2022/05/07 08:23:53;;;;;;;3.83;2.95;;;;;;;19.37;21.03;100846.72;5134311;27;20083;-83
2022/05/07 08:26:21;;;;;;;6.40;2.70;;;;;;;19.51;21.40;100865.00;5135378;27;20051;-82
2022/05/07 08:28:53;;;;;;;;;;;;;;;19.18;21.68;100856.75;5135493;27;20050;-82
2022/05/07 08:31:22;;;;;;;6.55;2.95;;;;;;;19.36;21.53;100876.75;5134456;27;19923;-83
2022/05/07 08:33:51;;;;;;;5.72;3.10;;;;;;;19.28;21.60;100849.53;5134579;27;20051;-82
2022/05/07 08:36:19;;;;;;;14.32;3.45;;;;;;;19.22;21.62;100829.31;5133578;27;20465;-81
2022/05/07 08:38:47;;;;;;;11.43;3.30;;;;;;;19.52;21.61;100870.28;5133046;27;20051;-81
2022/05/07 08:41:14;;;;;;;7.88;2.85;;;;;;;19.40;21.10;100849.31;5134577;27;20150;-83
2022/05/07 08:43:43;;;;;;;8.23;3.30;;;;;;;19.28;21.41;100815.97;5135227;27;20054;-82
2022/05/07 08:46:16;;;;;;;5.93;2.90;;;;;;;19.51;21.08;100843.81;5133599;27;20050;-82
2022/05/07 08:48:47;;;;;;;9.05;3.88;;;;;;;19.44;21.03;100817.47;5134679;27;20488;-83
2022/05/07 08:51:17;;;;;;;5.90;3.03;;;;;;;19.60;20.98;100852.50;5135079;27;20042;-83
2022/05/07 08:53:49;;;;;;;16.92;3.75;;;;;;;19.50;21.26;100844.72;5148543;27;20093;-81
2022/05/07 08:56:17;;;;;;;12.65;3.40;;;;;;;19.34;21.20;100830.91;5134773;27;20146;-84
2022/05/07 08:58:48;;;;;;;8.57;2.92;;;;;;;19.17;21.01;100772.91;5134957;27;20047;-83
2022/05/07 09:01:15;;;;;;;5.32;2.92;;;;;;;19.84;20.77;100834.41;5132869;27;20872;-84
2022/05/07 09:03:46;;;;;;;5.88;2.90;;;;;;;20.11;20.74;100845.34;5134531;27;20051;-82
2022/05/07 09:06:27;;;;;;;5.03;2.90;;;;;;;20.30;20.58;100840.56;5132490;27;20047;-83
2022/05/07 09:08:57;;;;;;;10.43;2.97;;;;;;;20.14;20.34;100779.00;5134139;27;20389;-80
2022/05/07 09:11:25;;;;;;;13.32;3.22;;;;;;;20.28;19.98;100837.91;5134689;28;20055;-82
2022/05/07 09:14:07;;;;;;;7.20;2.97;;;;;;;20.09;20.33;100828.59;5133861;28;20074;-82
2022/05/07 09:16:45;;;;;;;6.38;2.90;;;;;;;20.02;20.15;100819.91;5131932;28;20051;-80
2022/05/07 09:19:28;;;;;;;6.00;2.88;;;;;;;20.32;20.20;100825.47;5133676;27;20530;-82
2022/05/07 09:22:09;;;;;;;8.07;3.05;;;;;;;20.47;20.21;100819.81;5132815;27;20047;-82
2022/05/07 09:24:38;;;;;;;6.78;2.78;;;;;;;20.40;20.34;100819.09;5131549;28;20549;-82
2022/05/07 09:27:07;;;;;;;8.43;2.78;;;;;;;20.35;20.32;100817.44;5133232;28;20096;-81
2022/05/07 09:29:35;;;;;;;9.57;3.50;;;;;;;20.39;20.43;100796.13;5133288;28;20141;-82
2022/05/07 09:32:08;;;;;;;8.32;3.22;;;;;;;20.11;20.87;100806.47;5133321;27;20082;-82
2022/05/07 09:37:39;;;;;;;8.52;3.28;;;;;;;20.37;20.67;100795.28;5134020;27;20086;-80
2022/05/07 09:40:10;;;;;;;5.38;3.10;;;;;;;20.43;20.19;100811.09;5133340;28;20047;-81
2022/05/07 09:42:39;;;;;;;7.60;3.47;;;;;;;20.71;20.16;100801.63;5133139;27;20593;-80
2022/05/07 09:45:08;;;;;;;5.35;2.90;;;;;;;20.80;19.86;100807.59;5133168;28;20051;-81
2022/05/07 09:47:37;;;;;;;11.93;3.38;;;;;;;20.61;19.82;100793.03;5133467;27;20508;-81
2022/05/07 09:50:22;;;;;;;4.43;2.95;;;;;;;20.49;20.13;100777.34;5132961;28;20086;-82
2022/05/07 09:58:26;;;;;;;5.20;3.13;;;;;;;20.70;20.25;100787.50;5134071;28;20055;-82
2022/05/07 10:00:54;;;;;;;4.38;3.00;;;;;;;20.81;20.30;100780.13;5133708;28;20047;-79
2022/05/07 10:03:52;;;;;;;6.57;3.30;;;;;;;20.85;20.13;100780.94;5132755;28;20424;-82
2022/05/07 10:06:34;;;;;;;9.93;4.80;;;;;;;20.95;19.87;100776.25;5133198;28;20087;-80
2022/05/07 10:09:27;;;;;;;9.35;4.20;;;;;;;20.88;20.00;100778.19;5133400;28;20450;-80
2022/05/07 10:11:59;;;;;;;8.10;3.30;;;;;;;20.71;20.07;100780.41;5135044;27;20050;-80
2022/05/07 10:14:29;;;;;;;7.10;3.70;;;;;;;20.57;19.83;100738.22;5124953;27;20055;-81
2022/05/07 10:17:00;;;;;;;5.55;3.10;;;;;;;20.50;20.04;100773.75;5145170;27;20054;-81
2022/05/07 10:19:39;;;;;;;6.03;3.20;;;;;;;20.32;20.36;100757.38;5146433;27;20047;-81
2022/05/07 10:22:21;;;;;;;5.55;3.42;;;;;;;20.49;20.23;100759.63;5146829;27;20110;-79
2022/05/07 10:25:07;;;;;;;6.88;3.45;;;;;;;20.63;19.90;100759.34;5139704;27;20146;-82
2022/05/07 10:27:38;;;;;;;11.88;3.40;;;;;;;20.75;19.58;100756.38;5138250;27;20100;-85
2022/05/07 10:30:23;;;;;;;9.25;3.35;;;;;;;20.60;19.78;100744.34;5137055;27;20054;-84
2022/05/07 10:32:59;;;;;;;12.50;3.67;;;;;;;20.65;19.63;100765.50;5136505;27;20054;-80
2022/05/07 10:35:51;;;;;;;9.75;3.78;;;;;;;20.51;20.24;100754.31;5136732;27;20097;-82
2022/05/07 10:38:23;;;;;;;7.72;3.40;;;;;;;20.66;19.67;100759.28;5135067;27;20055;-80
2022/05/07 10:40:57;;;;;;;8.13;3.33;;;;;;;20.78;19.84;100761.63;5136597;27;20516;-81
2022/05/07 10:43:36;;;;;;;8.93;3.53;;;;;;;20.57;20.07;100743.53;5135590;27;20584;-82
2022/05/07 10:46:07;;;;;;;7.82;3.60;;;;;;;20.50;20.31;100749.88;5136293;27;20051;-82
2022/05/07 10:49:04;;;;;;;6.65;3.60;;;;;;;20.32;19.92;100714.91;5136096;27;20518;-80
2022/05/07 10:51:35;;;;;;;12.85;3.90;;;;;;;20.68;19.91;100745.97;5136205;27;20424;-81
2022/05/07 10:54:24;;;;;;;7.65;3.95;;;;;;;20.81;19.68;100720.84;5152572;27;20047;-80
2022/05/07 10:56:55;;;;;;;7.63;4.05;;;;;;;21.04;19.63;100709.66;5137084;27;20047;-79
2022/05/07 10:59:27;;;;;;;11.93;4.63;;;;;;;20.97;19.52;100676.19;5135223;27;20062;-82
2022/05/07 11:02:08;;;;;;;11.48;3.50;;;;;;;21.02;19.54;100730.94;5136506;27;20043;-81
2022/05/07 11:04:44;;;;;;;6.60;3.35;;;;;;;20.53;19.71;100675.53;5136050;27;20042;-81
2022/05/07 11:07:20;;;;;;;11.95;3.72;;;;;;;20.74;19.88;100676.81;5134699;27;20443;-81
2022/05/07 11:09:52;;;;;;;8.18;3.97;;;;;;;20.75;19.69;100702.41;5135230;27;20150;-79
2022/05/07 11:12:22;;;;;;;6.57;3.55;;;;;;;20.63;19.57;100724.84;5135837;27;20069;-80
2022/05/07 11:14:52;;;;;;;7.70;3.42;;;;;;;20.58;19.62;100711.66;5135915;27;20055;-80
2022/05/07 11:17:36;;;;;;;8.85;3.40;;;;;;;20.64;19.60;100710.66;5135323;27;20513;-82
2022/05/07 11:20:11;;;;;;;10.05;4.15;;;;;;;20.89;19.41;100715.34;5135694;27;20051;-79
2022/05/07 11:22:40;;;;;;;10.90;3.88;;;;;;;20.84;19.39;100694.22;5134265;27;20046;-81
2022/05/07 12:29:51;;;;;;;9.55;3.65;;;;;;;20.53;20.31;100622.44;5170731;27;20054;-78
2022/05/07 12:32:21;;;;;;;6.15;3.08;;;;;;;20.54;20.07;100593.22;5170499;27;20046;-77
2022/05/07 12:34:49;;;;;;;;;;;;;;;20.44;20.43;100620.91;5169628;27;20068;-78
2022/05/07 12:37:18;;;;;;;11.57;3.73;;;;;;;20.60;19.89;100614.28;5170526;27;19923;-77
2022/05/07 12:39:46;;;;;;;8.70;3.70;;;;;;;20.67;19.74;100609.69;5170612;27;20785;-78
2022/05/07 12:42:15;;;;;;;7.10;3.03;;;;;;;20.51;19.78;100609.22;5170394;27;20077;-78
2022/05/07 12:44:45;;;;;;;6.07;3.05;;;;;;;20.43;19.68;100605.88;5170448;27;20081;-77
2022/05/07 12:47:14;;;;;;;8.13;3.30;;;;;;;20.35;19.59;100614.03;5170582;27;20054;-79
2022/05/07 12:49:42;;;;;;;5.15;3.05;;;;;;;20.32;19.64;100613.25;5170136;27;20058;-79
2022/05/07 12:52:10;;;;;;;8.10;3.40;;;;;;;20.31;19.83;100607.06;5170679;27;20074;-79
2022/05/07 12:54:39;;;;;;;7.50;3.67;;;;;;;20.19;20.00;100581.69;5169991;27;20526;-78
2022/05/07 12:57:10;;;;;;;17.00;10.57;;;;;;;20.37;20.05;100590.09;5170144;27;20064;-79
2022/05/07 12:59:38;;;;;;;20.55;13.48;;;;;;;20.38;20.04;100584.75;5169435;27;20058;-79
2022/05/07 13:02:08;;;;;;;8.23;5.15;;;;;;;20.27;20.34;100580.66;5170265;27;20046;-77
2022/05/07 13:04:37;;;;;;;5.70;3.20;;;;;;;20.41;20.24;100589.13;5169760;27;20152;-78
2022/05/07 13:07:05;;;;;;;;;;;;;;;20.17;20.64;100583.53;5170743;27;20534;-79
2022/05/07 13:09:33;;;;;;;6.57;3.10;;;;;;;20.14;20.51;100585.41;5170611;27;19923;-77
2022/05/07 13:12:23;;;;;;;4.75;3.00;;;;;;;19.99;20.71;100586.63;5170910;27;20050;-79
2022/05/07 13:14:57;;;;;;;8.02;3.35;;;;;;;20.02;21.03;100582.09;5171028;27;20055;-78